sensor_id;sensor_type;location;lat;lon;timestamp;P1;durP1;ratioP1;P2;durP2;ratioP2
56242;SDS011;42155;53.096;23.226;2022-07-24T00:01:15;13.70;;;10.18;;
56242;SDS011;42155;53.096;23.226;2022-07-24T00:03:15;13.70;;;10.15;;
56242;SDS011;42155;53.096;23.226;2022-07-24T00:05:15;15.35;;;10.38;;
56242;SDS011;42155;53.096;23.226;2022-07-24T00:07:16;15.43;;;9.55;;
56242;SDS011;42155;53.096;23.226;2022-07-24T00:09:16;12.20;;;8.57;;
56242;SDS011;42155;53.096;23.226;2022-07-24T00:11:17;12.63;;;8.90;;
56242;SDS011;42155;53.096;23.226;2022-07-24T00:13:17;12.55;;;8.90;;
56242;SDS011;42155;53.096;23.226;2022-07-24T00:15:18;12.05;;;8.50;;
56242;SDS011;42155;53.096;23.226;2022-07-24T00:17:18;11.35;;;8.30;;
56242;SDS011;42155;53.096;23.226;2022-07-24T00:19:18;12.60;;;8.40;;
56242;SDS011;42155;53.096;23.226;2022-07-24T00:21:19;9.88;;;7.70;;
56242;SDS011;42155;53.096;23.226;2022-07-24T00:23:19;12.65;;;8.05;;
56242;SDS011;42155;53.096;23.226;2022-07-24T00:25:20;10.68;;;7.80;;
56242;SDS011;42155;53.096;23.226;2022-07-24T00:27:20;9.18;;;7.25;;
56242;SDS011;42155;53.096;23.226;2022-07-24T00:29:20;10.68;;;7.45;;
56242;SDS011;42155;53.096;23.226;2022-07-24T00:31:21;9.25;;;7.15;;
56242;SDS011;42155;53.096;23.226;2022-07-24T00:33:21;10.32;;;7.07;;
56242;SDS011;42155;53.096;23.226;2022-07-24T00:35:21;10.10;;;7.25;;
56242;SDS011;42155;53.096;23.226;2022-07-24T00:37:22;9.77;;;6.65;;
56242;SDS011;42155;53.096;23.226;2022-07-24T00:39:22;13.70;;;7.32;;
56242;SDS011;42155;53.096;23.226;2022-07-24T00:41:22;12.60;;;7.25;;
56242;SDS011;42155;53.096;23.226;2022-07-24T00:43:23;10.43;;;7.10;;
56242;SDS011;42155;53.096;23.226;2022-07-24T00:45:23;11.60;;;7.28;;
56242;SDS011;42155;53.096;23.226;2022-07-24T00:47:24;13.48;;;7.45;;
56242;SDS011;42155;53.096;23.226;2022-07-24T00:49:24;10.13;;;7.45;;
56242;SDS011;42155;53.096;23.226;2022-07-24T00:51:24;10.60;;;6.80;;
56242;SDS011;42155;53.096;23.226;2022-07-24T00:53:25;9.52;;;7.05;;
56242;SDS011;42155;53.096;23.226;2022-07-24T00:55:26;9.57;;;7.53;;
56242;SDS011;42155;53.096;23.226;2022-07-24T00:57:27;10.68;;;7.32;;
56242;SDS011;42155;53.096;23.226;2022-07-24T00:59:27;11.13;;;7.07;;
56242;SDS011;42155;53.096;23.226;2022-07-24T01:01:28;9.63;;;7.63;;
56242;SDS011;42155;53.096;23.226;2022-07-24T01:03:29;10.20;;;7.05;;
56242;SDS011;42155;53.096;23.226;2022-07-24T01:05:29;11.00;;;7.57;;
56242;SDS011;42155;53.096;23.226;2022-07-24T01:07:29;12.27;;;7.75;;
56242;SDS011;42155;53.096;23.226;2022-07-24T01:09:30;12.10;;;7.50;;
56242;SDS011;42155;53.096;23.226;2022-07-24T01:11:30;11.02;;;7.68;;
56242;SDS011;42155;53.096;23.226;2022-07-24T01:13:31;10.02;;;7.35;;
56242;SDS011;42155;53.096;23.226;2022-07-24T01:15:32;12.75;;;7.00;;
56242;SDS011;42155;53.096;23.226;2022-07-24T01:17:33;13.73;;;8.20;;
56242;SDS011;42155;53.096;23.226;2022-07-24T01:19:36;14.27;;;8.55;;
56242;SDS011;42155;53.096;23.226;2022-07-24T01:21:36;14.68;;;8.50;;
56242;SDS011;42155;53.096;23.226;2022-07-24T01:23:37;12.68;;;8.02;;
56242;SDS011;42155;53.096;23.226;2022-07-24T01:25:37;11.88;;;8.73;;
56242;SDS011;42155;53.096;23.226;2022-07-24T01:27:38;14.15;;;9.43;;
56242;SDS011;42155;53.096;23.226;2022-07-24T01:29:38;14.18;;;9.02;;
56242;SDS011;42155;53.096;23.226;2022-07-24T01:31:38;15.15;;;8.80;;
56242;SDS011;42155;53.096;23.226;2022-07-24T01:33:39;15.48;;;9.20;;
56242;SDS011;42155;53.096;23.226;2022-07-24T01:35:39;13.85;;;9.30;;
56242;SDS011;42155;53.096;23.226;2022-07-24T01:37:40;18.05;;;9.95;;
56242;SDS011;42155;53.096;23.226;2022-07-24T01:39:41;18.52;;;9.00;;
56242;SDS011;42155;53.096;23.226;2022-07-24T01:41:41;15.85;;;9.38;;
56242;SDS011;42155;53.096;23.226;2022-07-24T01:43:41;14.82;;;9.20;;
56242;SDS011;42155;53.096;23.226;2022-07-24T01:45:42;15.13;;;9.27;;
56242;SDS011;42155;53.096;23.226;2022-07-24T01:47:42;15.15;;;10.05;;
56242;SDS011;42155;53.096;23.226;2022-07-24T01:49:43;18.33;;;10.75;;
56242;SDS011;42155;53.096;23.226;2022-07-24T01:51:43;14.65;;;10.10;;
56242;SDS011;42155;53.096;23.226;2022-07-24T01:53:44;14.73;;;10.30;;
56242;SDS011;42155;53.096;23.226;2022-07-24T01:55:44;13.85;;;9.35;;
56242;SDS011;42155;53.096;23.226;2022-07-24T01:57:44;15.00;;;10.13;;
56242;SDS011;42155;53.096;23.226;2022-07-24T01:59:45;12.65;;;9.75;;
56242;SDS011;42155;53.096;23.226;2022-07-24T02:01:45;15.95;;;10.40;;
56242;SDS011;42155;53.096;23.226;2022-07-24T02:03:46;15.60;;;10.75;;
56242;SDS011;42155;53.096;23.226;2022-07-24T02:05:46;13.88;;;10.13;;
56242;SDS011;42155;53.096;23.226;2022-07-24T02:07:53;17.20;;;11.57;;
56242;SDS011;42155;53.096;23.226;2022-07-24T02:09:55;17.77;;;10.38;;
56242;SDS011;42155;53.096;23.226;2022-07-24T02:11:56;18.80;;;10.63;;
56242;SDS011;42155;53.096;23.226;2022-07-24T02:13:56;16.25;;;10.77;;
56242;SDS011;42155;53.096;23.226;2022-07-24T02:15:56;16.70;;;10.80;;
56242;SDS011;42155;53.096;23.226;2022-07-24T02:17:57;13.30;;;9.98;;
56242;SDS011;42155;53.096;23.226;2022-07-24T02:19:59;15.25;;;10.30;;
56242;SDS011;42155;53.096;23.226;2022-07-24T02:22:00;15.85;;;10.80;;
56242;SDS011;42155;53.096;23.226;2022-07-24T02:24:00;17.38;;;10.55;;
56242;SDS011;42155;53.096;23.226;2022-07-24T02:26:01;13.88;;;9.98;;
56242;SDS011;42155;53.096;23.226;2022-07-24T02:28:02;14.20;;;10.88;;
56242;SDS011;42155;53.096;23.226;2022-07-24T02:30:05;16.02;;;10.50;;
56242;SDS011;42155;53.096;23.226;2022-07-24T02:32:08;17.52;;;10.73;;
56242;SDS011;42155;53.096;23.226;2022-07-24T02:34:08;15.27;;;11.20;;
56242;SDS011;42155;53.096;23.226;2022-07-24T02:36:09;14.57;;;10.80;;
56242;SDS011;42155;53.096;23.226;2022-07-24T02:38:09;13.93;;;10.00;;
56242;SDS011;42155;53.096;23.226;2022-07-24T02:40:10;15.13;;;9.90;;
56242;SDS011;42155;53.096;23.226;2022-07-24T02:42:11;14.30;;;9.40;;
56242;SDS011;42155;53.096;23.226;2022-07-24T02:44:12;12.25;;;8.55;;
56242;SDS011;42155;53.096;23.226;2022-07-24T02:46:12;12.80;;;8.45;;
56242;SDS011;42155;53.096;23.226;2022-07-24T02:48:12;10.55;;;6.80;;
56242;SDS011;42155;53.096;23.226;2022-07-24T02:50:13;8.13;;;5.75;;
56242;SDS011;42155;53.096;23.226;2022-07-24T02:52:14;9.75;;;5.10;;
56242;SDS011;42155;53.096;23.226;2022-07-24T02:54:14;4.55;;;3.20;;
56242;SDS011;42155;53.096;23.226;2022-07-24T02:56:14;4.95;;;3.20;;
56242;SDS011;42155;53.096;23.226;2022-07-24T02:58:15;4.75;;;3.33;;
56242;SDS011;42155;53.096;23.226;2022-07-24T03:00:15;4.82;;;2.67;;
56242;SDS011;42155;53.096;23.226;2022-07-24T03:02:17;5.38;;;2.60;;
56242;SDS011;42155;53.096;23.226;2022-07-24T03:04:18;4.22;;;2.40;;
56242;SDS011;42155;53.096;23.226;2022-07-24T03:06:18;4.53;;;2.33;;
56242;SDS011;42155;53.096;23.226;2022-07-24T03:08:18;5.30;;;3.05;;
56242;SDS011;42155;53.096;23.226;2022-07-24T03:10:19;2.88;;;1.92;;
56242;SDS011;42155;53.096;23.226;2022-07-24T03:12:19;3.95;;;1.90;;
56242;SDS011;42155;53.096;23.226;2022-07-24T03:14:19;2.97;;;1.67;;
56242;SDS011;42155;53.096;23.226;2022-07-24T03:16:20;2.72;;;1.70;;
56242;SDS011;42155;53.096;23.226;2022-07-24T03:18:20;2.60;;;1.73;;
56242;SDS011;42155;53.096;23.226;2022-07-24T03:20:21;1.55;;;1.40;;
56242;SDS011;42155;53.096;23.226;2022-07-24T03:26:33;2.42;;;1.90;;
56242;SDS011;42155;53.096;23.226;2022-07-24T03:28:33;2.63;;;1.73;;
56242;SDS011;42155;53.096;23.226;2022-07-24T03:30:34;2.90;;;2.10;;
56242;SDS011;42155;53.096;23.226;2022-07-24T03:32:34;3.03;;;1.85;;
56242;SDS011;42155;53.096;23.226;2022-07-24T03:34:35;3.03;;;1.95;;
56242;SDS011;42155;53.096;23.226;2022-07-24T03:36:35;3.92;;;1.98;;
56242;SDS011;42155;53.096;23.226;2022-07-24T03:38:36;4.45;;;1.95;;
56242;SDS011;42155;53.096;23.226;2022-07-24T03:40:36;2.85;;;2.00;;
56242;SDS011;42155;53.096;23.226;2022-07-24T03:42:36;3.38;;;2.03;;
56242;SDS011;42155;53.096;23.226;2022-07-24T03:44:37;3.67;;;2.22;;
56242;SDS011;42155;53.096;23.226;2022-07-24T03:46:37;3.72;;;2.20;;
56242;SDS011;42155;53.096;23.226;2022-07-24T03:48:37;4.57;;;2.17;;
56242;SDS011;42155;53.096;23.226;2022-07-24T03:50:38;3.72;;;2.40;;
56242;SDS011;42155;53.096;23.226;2022-07-24T03:52:38;3.75;;;2.20;;
56242;SDS011;42155;53.096;23.226;2022-07-24T03:54:38;2.65;;;1.83;;
56242;SDS011;42155;53.096;23.226;2022-07-24T03:56:39;4.93;;;2.30;;
56242;SDS011;42155;53.096;23.226;2022-07-24T03:58:39;3.67;;;2.25;;
56242;SDS011;42155;53.096;23.226;2022-07-24T04:00:39;3.90;;;2.20;;
56242;SDS011;42155;53.096;23.226;2022-07-24T04:02:40;6.25;;;2.67;;
56242;SDS011;42155;53.096;23.226;2022-07-24T04:04:41;5.28;;;2.30;;
56242;SDS011;42155;53.096;23.226;2022-07-24T04:06:41;5.50;;;2.15;;
56242;SDS011;42155;53.096;23.226;2022-07-24T04:08:42;4.95;;;2.50;;
56242;SDS011;42155;53.096;23.226;2022-07-24T04:10:42;2.63;;;2.10;;
56242;SDS011;42155;53.096;23.226;2022-07-24T04:12:43;3.75;;;2.17;;
56242;SDS011;42155;53.096;23.226;2022-07-24T04:14:43;4.00;;;1.98;;
56242;SDS011;42155;53.096;23.226;2022-07-24T04:16:43;2.90;;;2.10;;
56242;SDS011;42155;53.096;23.226;2022-07-24T04:18:44;4.55;;;2.45;;
56242;SDS011;42155;53.096;23.226;2022-07-24T04:20:44;5.63;;;2.40;;
56242;SDS011;42155;53.096;23.226;2022-07-24T04:22:44;4.20;;;2.47;;
56242;SDS011;42155;53.096;23.226;2022-07-24T04:24:45;4.57;;;2.40;;
56242;SDS011;42155;53.096;23.226;2022-07-24T04:26:45;5.43;;;2.40;;
56242;SDS011;42155;53.096;23.226;2022-07-24T04:28:45;4.35;;;2.40;;
56242;SDS011;42155;53.096;23.226;2022-07-24T04:30:46;4.65;;;2.33;;
56242;SDS011;42155;53.096;23.226;2022-07-24T04:32:46;3.28;;;2.40;;
56242;SDS011;42155;53.096;23.226;2022-07-24T04:34:47;5.82;;;2.72;;
56242;SDS011;42155;53.096;23.226;2022-07-24T04:36:47;4.28;;;2.17;;
56242;SDS011;42155;53.096;23.226;2022-07-24T04:38:47;6.90;;;2.47;;
56242;SDS011;42155;53.096;23.226;2022-07-24T04:40:48;3.80;;;2.25;;
56242;SDS011;42155;53.096;23.226;2022-07-24T04:42:48;6.85;;;2.75;;
56242;SDS011;42155;53.096;23.226;2022-07-24T04:44:48;5.18;;;2.50;;
56242;SDS011;42155;53.096;23.226;2022-07-24T04:46:49;4.00;;;2.50;;
56242;SDS011;42155;53.096;23.226;2022-07-24T04:48:49;3.53;;;2.10;;
56242;SDS011;42155;53.096;23.226;2022-07-24T04:50:49;3.72;;;2.40;;
56242;SDS011;42155;53.096;23.226;2022-07-24T04:52:50;6.70;;;2.90;;
56242;SDS011;42155;53.096;23.226;2022-07-24T04:54:50;4.88;;;2.55;;
56242;SDS011;42155;53.096;23.226;2022-07-24T04:56:50;4.63;;;2.72;;
56242;SDS011;42155;53.096;23.226;2022-07-24T04:58:51;4.43;;;2.75;;
56242;SDS011;42155;53.096;23.226;2022-07-24T05:00:51;4.72;;;2.90;;
56242;SDS011;42155;53.096;23.226;2022-07-24T05:02:52;4.40;;;2.00;;
56242;SDS011;42155;53.096;23.226;2022-07-24T05:04:52;5.82;;;2.72;;
56242;SDS011;42155;53.096;23.226;2022-07-24T05:06:52;6.40;;;2.97;;
56242;SDS011;42155;53.096;23.226;2022-07-24T05:08:53;10.20;;;3.22;;
56242;SDS011;42155;53.096;23.226;2022-07-24T05:10:53;9.55;;;2.67;;
56242;SDS011;42155;53.096;23.226;2022-07-24T05:12:53;5.50;;;2.78;;
56242;SDS011;42155;53.096;23.226;2022-07-24T05:14:54;3.95;;;2.50;;
56242;SDS011;42155;53.096;23.226;2022-07-24T05:16:54;4.97;;;2.40;;
56242;SDS011;42155;53.096;23.226;2022-07-24T05:18:54;3.88;;;2.30;;
56242;SDS011;42155;53.096;23.226;2022-07-24T05:20:55;3.72;;;2.30;;
56242;SDS011;42155;53.096;23.226;2022-07-24T05:22:55;8.60;;;2.10;;
56242;SDS011;42155;53.096;23.226;2022-07-24T05:24:55;6.25;;;2.38;;
56242;SDS011;42155;53.096;23.226;2022-07-24T05:26:56;3.53;;;1.90;;
56242;SDS011;42155;53.096;23.226;2022-07-24T05:28:57;3.70;;;2.10;;
56242;SDS011;42155;53.096;23.226;2022-07-24T05:30:58;2.38;;;1.60;;
56242;SDS011;42155;53.096;23.226;2022-07-24T05:32:58;4.68;;;1.92;;
56242;SDS011;42155;53.096;23.226;2022-07-24T05:34:59;3.05;;;1.83;;
56242;SDS011;42155;53.096;23.226;2022-07-24T05:36:59;4.50;;;1.98;;
56242;SDS011;42155;53.096;23.226;2022-07-24T05:38:59;3.58;;;1.63;;
56242;SDS011;42155;53.096;23.226;2022-07-24T05:41:00;2.30;;;1.42;;
56242;SDS011;42155;53.096;23.226;2022-07-24T05:43:00;3.33;;;1.70;;
56242;SDS011;42155;53.096;23.226;2022-07-24T05:45:03;3.67;;;1.90;;
56242;SDS011;42155;53.096;23.226;2022-07-24T05:47:04;5.55;;;1.65;;
56242;SDS011;42155;53.096;23.226;2022-07-24T05:49:05;2.38;;;1.35;;
56242;SDS011;42155;53.096;23.226;2022-07-24T05:51:05;3.42;;;1.65;;
56242;SDS011;42155;53.096;23.226;2022-07-24T05:53:05;3.88;;;1.75;;
56242;SDS011;42155;53.096;23.226;2022-07-24T05:55:06;4.70;;;1.98;;
56242;SDS011;42155;53.096;23.226;2022-07-24T05:57:07;3.63;;;1.75;;
56242;SDS011;42155;53.096;23.226;2022-07-24T05:59:08;5.93;;;1.95;;
56242;SDS011;42155;53.096;23.226;2022-07-24T06:01:08;5.70;;;1.50;;
56242;SDS011;42155;53.096;23.226;2022-07-24T06:03:09;2.50;;;1.45;;
56242;SDS011;42155;53.096;23.226;2022-07-24T06:05:09;5.05;;;2.08;;
56242;SDS011;42155;53.096;23.226;2022-07-24T06:07:09;3.60;;;1.92;;
56242;SDS011;42155;53.096;23.226;2022-07-24T06:09:10;4.43;;;1.70;;
56242;SDS011;42155;53.096;23.226;2022-07-24T06:11:10;3.42;;;1.80;;
56242;SDS011;42155;53.096;23.226;2022-07-24T06:13:10;4.15;;;1.70;;
56242;SDS011;42155;53.096;23.226;2022-07-24T06:15:11;3.35;;;1.50;;
56242;SDS011;42155;53.096;23.226;2022-07-24T06:17:12;2.90;;;1.30;;
56242;SDS011;42155;53.096;23.226;2022-07-24T06:19:12;3.90;;;1.50;;
56242;SDS011;42155;53.096;23.226;2022-07-24T06:21:12;2.85;;;1.20;;
56242;SDS011;42155;53.096;23.226;2022-07-24T06:23:13;5.13;;;1.33;;
56242;SDS011;42155;53.096;23.226;2022-07-24T06:25:13;8.07;;;1.70;;
56242;SDS011;42155;53.096;23.226;2022-07-24T06:27:14;4.50;;;1.77;;
56242;SDS011;42155;53.096;23.226;2022-07-24T06:29:14;4.43;;;1.60;;
56242;SDS011;42155;53.096;23.226;2022-07-24T06:31:14;4.55;;;1.60;;
56242;SDS011;42155;53.096;23.226;2022-07-24T06:33:15;5.72;;;1.85;;
56242;SDS011;42155;53.096;23.226;2022-07-24T06:35:15;5.07;;;1.90;;
56242;SDS011;42155;53.096;23.226;2022-07-24T06:37:16;4.22;;;1.90;;
56242;SDS011;42155;53.096;23.226;2022-07-24T06:39:16;8.70;;;2.28;;
56242;SDS011;42155;53.096;23.226;2022-07-24T06:41:17;5.07;;;2.22;;
56242;SDS011;42155;53.096;23.226;2022-07-24T06:43:18;3.45;;;1.80;;
56242;SDS011;42155;53.096;23.226;2022-07-24T06:45:18;5.10;;;2.38;;
56242;SDS011;42155;53.096;23.226;2022-07-24T06:47:18;4.72;;;2.05;;
56242;SDS011;42155;53.096;23.226;2022-07-24T06:49:19;4.22;;;2.08;;
56242;SDS011;42155;53.096;23.226;2022-07-24T06:51:19;4.57;;;1.73;;
56242;SDS011;42155;53.096;23.226;2022-07-24T06:53:20;2.53;;;1.35;;
56242;SDS011;42155;53.096;23.226;2022-07-24T06:55:20;2.75;;;1.30;;
56242;SDS011;42155;53.096;23.226;2022-07-24T06:57:21;3.20;;;1.50;;
56242;SDS011;42155;53.096;23.226;2022-07-24T06:59:21;3.65;;;2.03;;
56242;SDS011;42155;53.096;23.226;2022-07-24T07:01:22;6.25;;;1.73;;
56242;SDS011;42155;53.096;23.226;2022-07-24T07:03:22;2.35;;;1.33;;
56242;SDS011;42155;53.096;23.226;2022-07-24T07:05:22;5.13;;;1.30;;
56242;SDS011;42155;53.096;23.226;2022-07-24T07:07:23;4.30;;;1.40;;
56242;SDS011;42155;53.096;23.226;2022-07-24T07:09:23;5.60;;;1.55;;
56242;SDS011;42155;53.096;23.226;2022-07-24T07:11:24;5.65;;;1.48;;
56242;SDS011;42155;53.096;23.226;2022-07-24T07:13:24;2.92;;;1.30;;
56242;SDS011;42155;53.096;23.226;2022-07-24T07:15:24;2.72;;;1.20;;
56242;SDS011;42155;53.096;23.226;2022-07-24T07:17:25;4.90;;;1.80;;
56242;SDS011;42155;53.096;23.226;2022-07-24T07:19:25;5.47;;;1.40;;
56242;SDS011;42155;53.096;23.226;2022-07-24T07:21:26;5.05;;;1.48;;
56242;SDS011;42155;53.096;23.226;2022-07-24T07:23:26;3.63;;;1.40;;
56242;SDS011;42155;53.096;23.226;2022-07-24T07:25:27;3.15;;;1.52;;
56242;SDS011;42155;53.096;23.226;2022-07-24T07:27:27;4.30;;;1.50;;
56242;SDS011;42155;53.096;23.226;2022-07-24T07:29:27;5.63;;;1.48;;
56242;SDS011;42155;53.096;23.226;2022-07-24T07:31:30;3.15;;;1.40;;
56242;SDS011;42155;53.096;23.226;2022-07-24T07:33:30;2.47;;;1.40;;
56242;SDS011;42155;53.096;23.226;2022-07-24T07:35:30;3.20;;;1.42;;
56242;SDS011;42155;53.096;23.226;2022-07-24T07:37:31;4.55;;;1.40;;
56242;SDS011;42155;53.096;23.226;2022-07-24T07:39:31;3.90;;;1.20;;
56242;SDS011;42155;53.096;23.226;2022-07-24T07:41:31;2.88;;;1.60;;
56242;SDS011;42155;53.096;23.226;2022-07-24T07:43:32;3.13;;;1.45;;
56242;SDS011;42155;53.096;23.226;2022-07-24T07:45:32;4.85;;;1.20;;
56242;SDS011;42155;53.096;23.226;2022-07-24T07:47:35;5.80;;;1.67;;
56242;SDS011;42155;53.096;23.226;2022-07-24T07:49:36;3.17;;;1.25;;
56242;SDS011;42155;53.096;23.226;2022-07-24T07:51:36;3.05;;;1.20;;
56242;SDS011;42155;53.096;23.226;2022-07-24T07:53:37;3.65;;;1.40;;
56242;SDS011;42155;53.096;23.226;2022-07-24T07:55:37;2.38;;;1.20;;
56242;SDS011;42155;53.096;23.226;2022-07-24T07:57:37;2.40;;;1.20;;
56242;SDS011;42155;53.096;23.226;2022-07-24T07:59:40;3.67;;;1.38;;
56242;SDS011;42155;53.096;23.226;2022-07-24T08:01:40;4.45;;;1.63;;
56242;SDS011;42155;53.096;23.226;2022-07-24T08:03:40;5.93;;;1.50;;
56242;SDS011;42155;53.096;23.226;2022-07-24T08:05:41;2.72;;;1.30;;
56242;SDS011;42155;53.096;23.226;2022-07-24T08:07:41;3.17;;;1.50;;
56242;SDS011;42155;53.096;23.226;2022-07-24T08:09:41;2.80;;;1.40;;
56242;SDS011;42155;53.096;23.226;2022-07-24T08:11:42;3.22;;;1.33;;
56242;SDS011;42155;53.096;23.226;2022-07-24T08:13:42;2.78;;;1.50;;
56242;SDS011;42155;53.096;23.226;2022-07-24T08:15:42;2.75;;;1.42;;
56242;SDS011;42155;53.096;23.226;2022-07-24T08:17:43;2.60;;;1.40;;
56242;SDS011;42155;53.096;23.226;2022-07-24T08:19:44;2.83;;;1.35;;
56242;SDS011;42155;53.096;23.226;2022-07-24T08:21:44;4.75;;;1.10;;
56242;SDS011;42155;53.096;23.226;2022-07-24T08:23:45;3.95;;;1.45;;
56242;SDS011;42155;53.096;23.226;2022-07-24T08:25:45;2.85;;;1.30;;
56242;SDS011;42155;53.096;23.226;2022-07-24T08:27:46;2.08;;;1.10;;
56242;SDS011;42155;53.096;23.226;2022-07-24T08:29:46;3.55;;;1.30;;
56242;SDS011;42155;53.096;23.226;2022-07-24T08:31:47;2.17;;;1.20;;
56242;SDS011;42155;53.096;23.226;2022-07-24T08:33:47;4.43;;;1.30;;
56242;SDS011;42155;53.096;23.226;2022-07-24T08:35:47;2.78;;;1.30;;
56242;SDS011;42155;53.096;23.226;2022-07-24T08:37:48;2.75;;;1.30;;
56242;SDS011;42155;53.096;23.226;2022-07-24T08:39:48;4.03;;;1.20;;
56242;SDS011;42155;53.096;23.226;2022-07-24T08:41:48;3.35;;;1.25;;
56242;SDS011;42155;53.096;23.226;2022-07-24T08:43:49;2.28;;;1.25;;
56242;SDS011;42155;53.096;23.226;2022-07-24T08:45:49;4.13;;;1.33;;
56242;SDS011;42155;53.096;23.226;2022-07-24T08:47:55;3.65;;;1.20;;
56242;SDS011;42155;53.096;23.226;2022-07-24T08:49:55;4.18;;;1.30;;
56242;SDS011;42155;53.096;23.226;2022-07-24T08:51:58;2.03;;;1.33;;
56242;SDS011;42155;53.096;23.226;2022-07-24T08:54:00;2.72;;;1.30;;
56242;SDS011;42155;53.096;23.226;2022-07-24T08:56:00;2.83;;;1.30;;
56242;SDS011;42155;53.096;23.226;2022-07-24T08:58:00;3.60;;;1.50;;
56242;SDS011;42155;53.096;23.226;2022-07-24T09:00:02;2.70;;;1.25;;
56242;SDS011;42155;53.096;23.226;2022-07-24T09:02:03;2.10;;;1.10;;
56242;SDS011;42155;53.096;23.226;2022-07-24T09:04:03;2.45;;;1.63;;
56242;SDS011;42155;53.096;23.226;2022-07-24T09:06:04;2.97;;;1.38;;
56242;SDS011;42155;53.096;23.226;2022-07-24T09:08:08;2.60;;;1.40;;
56242;SDS011;42155;53.096;23.226;2022-07-24T09:10:11;2.53;;;1.20;;
56242;SDS011;42155;53.096;23.226;2022-07-24T09:12:14;5.50;;;1.38;;
56242;SDS011;42155;53.096;23.226;2022-07-24T09:14:16;5.20;;;1.42;;
56242;SDS011;42155;53.096;23.226;2022-07-24T09:16:20;3.30;;;1.45;;
56242;SDS011;42155;53.096;23.226;2022-07-24T09:18:40;3.25;;;1.10;;
56242;SDS011;42155;53.096;23.226;2022-07-24T09:20:40;2.58;;;1.05;;
56242;SDS011;42155;53.096;23.226;2022-07-24T09:22:41;2.95;;;1.02;;
56242;SDS011;42155;53.096;23.226;2022-07-24T09:24:42;2.50;;;1.30;;
56242;SDS011;42155;53.096;23.226;2022-07-24T09:27:00;2.60;;;1.10;;
56242;SDS011;42155;53.096;23.226;2022-07-24T09:29:00;1.30;;;1.00;;
56242;SDS011;42155;53.096;23.226;2022-07-24T09:31:01;1.80;;;1.10;;
56242;SDS011;42155;53.096;23.226;2022-07-24T09:35:06;1.92;;;1.10;;
56242;SDS011;42155;53.096;23.226;2022-07-24T09:37:07;5.10;;;1.30;;
56242;SDS011;42155;53.096;23.226;2022-07-24T09:39:08;2.03;;;1.15;;
56242;SDS011;42155;53.096;23.226;2022-07-24T09:41:08;1.70;;;1.23;;
56242;SDS011;42155;53.096;23.226;2022-07-24T09:43:27;1.88;;;1.05;;
56242;SDS011;42155;53.096;23.226;2022-07-24T09:45:30;2.55;;;1.17;;
56242;SDS011;42155;53.096;23.226;2022-07-24T09:47:52;3.53;;;1.00;;
56242;SDS011;42155;53.096;23.226;2022-07-24T09:49:52;4.25;;;1.25;;
56242;SDS011;42155;53.096;23.226;2022-07-24T09:54:05;1.83;;;1.10;;
56242;SDS011;42155;53.096;23.226;2022-07-24T09:58:11;1.95;;;1.00;;
56242;SDS011;42155;53.096;23.226;2022-07-24T10:00:16;2.83;;;1.20;;
56242;SDS011;42155;53.096;23.226;2022-07-24T10:02:18;4.28;;;1.40;;
56242;SDS011;42155;53.096;23.226;2022-07-24T10:04:22;2.67;;;1.25;;
56242;SDS011;42155;53.096;23.226;2022-07-24T10:06:27;1.88;;;1.00;;
56242;SDS011;42155;53.096;23.226;2022-07-24T10:08:28;3.22;;;1.20;;
56242;SDS011;42155;53.096;23.226;2022-07-24T10:10:28;2.15;;;1.15;;
56242;SDS011;42155;53.096;23.226;2022-07-24T10:12:32;2.45;;;1.42;;
56242;SDS011;42155;53.096;23.226;2022-07-24T10:14:33;3.38;;;1.20;;
56242;SDS011;42155;53.096;23.226;2022-07-24T10:16:33;3.63;;;1.17;;
56242;SDS011;42155;53.096;23.226;2022-07-24T10:18:51;2.35;;;1.13;;
56242;SDS011;42155;53.096;23.226;2022-07-24T10:20:51;1.30;;;1.00;;
56242;SDS011;42155;53.096;23.226;2022-07-24T10:23:06;5.75;;;1.10;;
56242;SDS011;42155;53.096;23.226;2022-07-24T10:25:07;2.55;;;0.93;;
56242;SDS011;42155;53.096;23.226;2022-07-24T10:27:10;3.72;;;1.25;;
56242;SDS011;42155;53.096;23.226;2022-07-24T10:29:23;2.05;;;1.10;;
56242;SDS011;42155;53.096;23.226;2022-07-24T10:31:24;5.47;;;1.10;;
56242;SDS011;42155;53.096;23.226;2022-07-24T10:33:26;2.97;;;0.95;;
56242;SDS011;42155;53.096;23.226;2022-07-24T10:35:26;1.77;;;1.00;;
56242;SDS011;42155;53.096;23.226;2022-07-24T10:42:02;1.73;;;1.00;;
56242;SDS011;42155;53.096;23.226;2022-07-24T10:44:11;1.30;;;1.15;;
56242;SDS011;42155;53.096;23.226;2022-07-24T10:46:12;3.28;;;1.08;;
56242;SDS011;42155;53.096;23.226;2022-07-24T10:50:21;3.17;;;1.63;;
56242;SDS011;42155;53.096;23.226;2022-07-24T10:52:23;1.88;;;1.08;;
56242;SDS011;42155;53.096;23.226;2022-07-24T10:54:25;2.25;;;1.30;;
56242;SDS011;42155;53.096;23.226;2022-07-24T10:56:26;1.55;;;1.10;;
56242;SDS011;42155;53.096;23.226;2022-07-24T10:59:06;2.08;;;1.27;;
56242;SDS011;42155;53.096;23.226;2022-07-24T11:01:26;4.75;;;1.35;;
56242;SDS011;42155;53.096;23.226;2022-07-24T11:03:50;3.28;;;1.40;;
56242;SDS011;42155;53.096;23.226;2022-07-24T11:06:09;1.10;;;0.93;;
56242;SDS011;42155;53.096;23.226;2022-07-24T11:10:17;3.63;;;1.30;;
56242;SDS011;42155;53.096;23.226;2022-07-24T11:12:25;1.58;;;1.30;;
56242;SDS011;42155;53.096;23.226;2022-07-24T11:16:39;1.90;;;1.50;;
56242;SDS011;42155;53.096;23.226;2022-07-24T11:18:40;4.15;;;1.40;;
56242;SDS011;42155;53.096;23.226;2022-07-24T11:21:01;2.28;;;1.38;;
56242;SDS011;42155;53.096;23.226;2022-07-24T11:23:04;2.22;;;1.30;;
56242;SDS011;42155;53.096;23.226;2022-07-24T11:25:23;4.07;;;1.38;;
56242;SDS011;42155;53.096;23.226;2022-07-24T11:27:24;3.00;;;1.70;;
56242;SDS011;42155;53.096;23.226;2022-07-24T11:31:26;2.30;;;1.50;;
56242;SDS011;42155;53.096;23.226;2022-07-24T11:33:27;5.80;;;1.50;;
56242;SDS011;42155;53.096;23.226;2022-07-24T11:35:28;3.92;;;1.30;;
56242;SDS011;42155;53.096;23.226;2022-07-24T11:37:31;3.45;;;1.50;;
56242;SDS011;42155;53.096;23.226;2022-07-24T11:39:34;1.90;;;1.30;;
56242;SDS011;42155;53.096;23.226;2022-07-24T11:41:43;2.50;;;1.27;;
56242;SDS011;42155;53.096;23.226;2022-07-24T11:43:51;2.40;;;1.40;;
56242;SDS011;42155;53.096;23.226;2022-07-24T11:45:51;2.15;;;1.45;;
56242;SDS011;42155;53.096;23.226;2022-07-24T11:47:52;2.47;;;1.40;;
56242;SDS011;42155;53.096;23.226;2022-07-24T11:51:54;4.10;;;1.70;;
56242;SDS011;42155;53.096;23.226;2022-07-24T11:53:55;2.90;;;1.48;;
56242;SDS011;42155;53.096;23.226;2022-07-24T11:56:05;1.90;;;1.33;;
56242;SDS011;42155;53.096;23.226;2022-07-24T11:58:05;3.47;;;1.40;;
56242;SDS011;42155;53.096;23.226;2022-07-24T12:00:07;3.17;;;1.85;;
56242;SDS011;42155;53.096;23.226;2022-07-24T12:02:10;3.55;;;1.73;;
56242;SDS011;42155;53.096;23.226;2022-07-24T12:04:10;3.55;;;1.55;;
56242;SDS011;42155;53.096;23.226;2022-07-24T12:06:14;2.15;;;1.65;;
56242;SDS011;42155;53.096;23.226;2022-07-24T12:08:15;3.33;;;1.88;;
56242;SDS011;42155;53.096;23.226;2022-07-24T12:10:20;5.68;;;1.90;;
56242;SDS011;42155;53.096;23.226;2022-07-24T12:12:28;4.70;;;1.60;;
56242;SDS011;42155;53.096;23.226;2022-07-24T12:14:33;2.25;;;1.70;;
56242;SDS011;42155;53.096;23.226;2022-07-24T12:16:33;4.60;;;1.73;;
56242;SDS011;42155;53.096;23.226;2022-07-24T12:18:34;5.85;;;1.70;;
56242;SDS011;42155;53.096;23.226;2022-07-24T12:20:35;4.85;;;1.75;;
56242;SDS011;42155;53.096;23.226;2022-07-24T12:22:43;2.22;;;1.58;;
56242;SDS011;42155;53.096;23.226;2022-07-24T12:24:43;5.30;;;2.13;;